createdAt,value
2023-08-14T00:00:24.585Z,98015.44
2023-08-14T00:02:52.865Z,98022.19
2023-08-14T00:05:20.858Z,98018.66
2023-08-14T00:07:50.283Z,98010.91
2023-08-14T00:10:18.338Z,98013.97
2023-08-14T00:12:46.333Z,98010.44
2023-08-14T00:15:15.370Z,98008.16
2023-08-14T00:17:43.483Z,98009.94
2023-08-14T00:20:12.679Z,98006.06
2023-08-14T00:22:40.744Z,98008.59
2023-08-14T00:25:11.666Z,98006.50
2023-08-14T00:27:39.766Z,98010.84
2023-08-14T00:30:08.719Z,98014.06
2023-08-14T00:32:36.741Z,98018.41
2023-08-14T00:35:05.401Z,98017.31
2023-08-14T00:37:43.923Z,98017.31
2023-08-14T00:40:14.953Z,98015.41
2023-08-14T00:42:46.130Z,98014.44
2023-08-14T00:45:14.281Z,98017.97
2023-08-14T00:47:44.620Z,98018.78
2023-08-14T00:50:13.385Z,98011.38
2023-08-14T00:52:43.928Z,98021.22
2023-08-14T00:55:17.685Z,98006.72
2023-08-14T00:57:46.952Z,98011.88
2023-08-14T01:00:16.610Z,98002.34
2023-08-14T01:02:45.985Z,97999.94
2023-08-14T01:05:14.312Z,98004.28
2023-08-14T01:07:42.349Z,98006.22
2023-08-14T01:10:12.544Z,98005.25
2023-08-14T01:12:48.557Z,98012.13
2023-08-14T01:15:20.931Z,98013.75
2023-08-14T01:17:53.012Z,98017.00
2023-08-14T01:20:22.904Z,98002.81
2023-08-14T01:23:00.597Z,98004.44
2023-08-14T01:25:32.799Z,97997.97
2023-08-14T01:28:01.349Z,97992.31
2023-08-14T01:30:29.474Z,97990.38
2023-08-14T01:32:57.721Z,97986.81
2023-08-14T01:35:28.537Z,97986.81
2023-08-14T01:38:05.330Z,97984.56
2023-08-14T01:40:43.670Z,97992.97
2023-08-14T01:43:17.028Z,97993.09
2023-08-14T01:45:45.247Z,97995.84
2023-08-14T01:48:15.598Z,98000.19
2023-08-14T01:50:45.250Z,97996.34
2023-08-14T01:53:13.323Z,98010.19
2023-08-14T01:55:42.974Z,98025.97
2023-08-14T01:58:10.975Z,98036.13
2023-08-14T02:00:39.239Z,98053.41
2023-08-14T02:03:08.520Z,98073.56
2023-08-14T02:05:36.881Z,98043.59
2023-08-14T02:08:05.510Z,98022.41
2023-08-14T02:10:33.694Z,98014.19
2023-08-14T02:13:03.132Z,98003.69
2023-08-14T02:15:31.120Z,97992.91
2023-08-14T02:17:59.856Z,97986.00
2023-08-14T02:20:28.005Z,97986.66
2023-08-14T02:22:55.987Z,97989.25
2023-08-14T02:25:24.019Z,97982.97
2023-08-14T02:27:52.065Z,97977.81
2023-08-14T02:30:21.565Z,97976.69
2023-08-14T02:32:49.807Z,97977.03
2023-08-14T02:35:18.122Z,97980.72
2023-08-14T02:37:46.249Z,97978.78
2023-08-14T02:40:14.435Z,97987.81
2023-08-14T02:42:42.458Z,97987.34
2023-08-14T02:45:11.378Z,97990.56
2023-08-14T02:47:41.141Z,97995.53
2023-08-14T02:50:09.724Z,97992.63
2023-08-14T02:52:37.641Z,97981.03
2023-08-14T02:55:06.533Z,97982.47
2023-08-14T02:57:34.656Z,97977.47
2023-08-14T03:00:02.809Z,97980.53
2023-08-14T03:02:31.002Z,97963.94
2023-08-14T03:05:00.510Z,97955.22
2023-08-14T03:07:28.777Z,97943.47
2023-08-14T03:09:57.655Z,97938.19
2023-08-14T03:12:25.732Z,97930.28
2023-08-14T03:14:53.676Z,97936.06
2023-08-14T03:17:21.760Z,97947.81
2023-08-14T03:19:49.797Z,97962.00
2023-08-14T03:22:19.739Z,97969.41
2023-08-14T03:24:47.971Z,97972.75
2023-08-14T03:27:16.197Z,97984.19
2023-08-14T03:29:44.232Z,97984.69
2023-08-14T03:32:12.314Z,97972.13
2023-08-14T03:34:40.405Z,97981.16
2023-08-14T03:37:10.192Z,97975.19
2023-08-14T03:39:41.832Z,97981.59
2023-08-14T03:42:09.891Z,97980.81
2023-08-14T03:44:38.014Z,97953.59
2023-08-14T03:47:06.199Z,97929.75
2023-08-14T03:49:34.127Z,97917.16
2023-08-14T03:52:02.120Z,97913.63
2023-08-14T03:54:30.064Z,97917.47
2023-08-14T03:56:59.751Z,97938.56
2023-08-14T03:59:27.723Z,97945.94
2023-08-14T04:01:55.801Z,97956.41
2023-08-14T04:04:23.870Z,97973.63
2023-08-14T04:06:52.008Z,97972.34
2023-08-14T04:09:20.148Z,97975.41
2023-08-14T04:11:48.301Z,97973.63
2023-08-14T04:14:17.859Z,97957.03
2023-08-14T04:16:46.799Z,97951.19
2023-08-14T04:19:16.547Z,97950.81
2023-08-14T04:21:45.164Z,97946.47
2023-08-14T04:24:13.568Z,97944.19
2023-08-14T04:26:42.021Z,97955.94
2023-08-14T04:29:11.653Z,97953.50
2023-08-14T04:31:42.413Z,97951.91
2023-08-14T04:34:11.802Z,97951.91
2023-08-14T04:36:40.155Z,97944.34
2023-08-14T04:39:08.836Z,97930.66
2023-08-14T04:41:37.186Z,97926.00
2023-08-14T04:44:05.798Z,97944.00
2023-08-14T04:46:48.991Z,97960.28
2023-08-14T04:49:23.254Z,97955.63
2023-08-14T04:51:51.239Z,97959.97
2023-08-14T04:54:19.273Z,97947.09
2023-08-14T04:56:47.462Z,97949.84
2023-08-14T04:59:15.422Z,97964.31
2023-08-14T05:01:43.900Z,97958.72
2023-08-14T05:04:12.111Z,97955.81
2023-08-14T05:06:41.878Z,97964.81
2023-08-14T05:09:24.056Z,97966.91
2023-08-14T05:11:54.277Z,97961.44
2023-08-14T05:14:22.248Z,97959.19
2023-08-14T05:16:50.268Z,97956.47
2023-08-14T05:19:18.436Z,97953.09
2023-08-14T05:21:48.485Z,97954.41
2023-08-14T05:24:17.349Z,97956.81
2023-08-14T05:26:45.680Z,97968.25
2023-08-14T05:29:13.626Z,97968.78
2023-08-14T05:31:41.713Z,97966.22
2023-08-14T05:34:09.770Z,97954.47
2023-08-14T05:36:37.916Z,97948.19
2023-08-14T05:39:09.779Z,97943.22
2023-08-14T05:41:37.841Z,97941.16
2023-08-14T05:44:06.828Z,97925.41
2023-08-14T05:46:34.969Z,97935.88
2023-08-14T05:49:05.278Z,97937.50
2023-08-14T05:51:33.551Z,97937.34
2023-08-14T05:54:01.579Z,97932.53
2023-08-14T05:56:31.003Z,97920.97
2023-08-14T05:58:59.065Z,97918.38
2023-08-14T06:01:27.751Z,97915.00
2023-08-14T06:03:56.188Z,97915.66
2023-08-14T06:06:24.606Z,97925.47
2023-08-14T06:08:52.619Z,97922.91
2023-08-14T06:11:20.737Z,97921.50
2023-08-14T06:13:50.119Z,97921.34
2023-08-14T06:16:18.200Z,97918.59
2023-08-14T06:18:46.205Z,97920.69
2023-08-14T06:21:14.207Z,97920.69
2023-08-14T06:23:42.240Z,97924.72
2023-08-14T06:26:10.655Z,97936.63
2023-08-14T06:28:38.727Z,97908.94
2023-08-14T06:31:08.516Z,97916.66
2023-08-14T06:33:38.930Z,97924.56
2023-08-14T06:36:08.098Z,97920.53
2023-08-14T06:38:36.495Z,97926.97
2023-08-14T06:41:04.637Z,97936.81
2023-08-14T06:43:33.265Z,97926.47
2023-08-14T06:46:02.281Z,97926.66
2023-08-14T06:48:33.698Z,97922.94
2023-08-14T06:51:01.746Z,97913.38
2023-08-14T06:53:29.776Z,97917.25
2023-08-14T06:55:57.886Z,97909.69
2023-08-14T06:58:25.921Z,97904.69
2023-08-14T07:00:54.818Z,97924.19
2023-08-14T07:03:23.060Z,97928.84
2023-08-14T07:05:52.875Z,97931.59
2023-08-14T07:08:21.089Z,97935.28
2023-08-14T07:10:49.446Z,97934.16
2023-08-14T07:13:17.499Z,97931.59
2023-08-14T07:15:48.646Z,97939.31
2023-08-14T07:18:17.203Z,97935.28
2023-08-14T07:20:46.366Z,97930.09
2023-08-14T07:23:16.835Z,97942.66
2023-08-14T07:25:45.120Z,97947.06
2023-08-14T07:28:13.674Z,97936.97
2023-08-14T07:30:41.892Z,97936.88
2023-08-14T07:33:11.888Z,97926.44
2023-08-14T07:35:40.273Z,97926.56
2023-08-14T07:38:08.312Z,97922.22
2023-08-14T07:40:37.676Z,97913.50
2023-08-14T07:43:08.341Z,97923.28
2023-08-14T07:45:37.135Z,97925.31
2023-08-14T07:48:05.732Z,97926.53
2023-08-14T07:50:33.823Z,97934.34
2023-08-14T07:53:01.941Z,97931.34
2023-08-14T07:55:29.996Z,97922.63
2023-08-14T07:57:59.390Z,97923.66
2023-08-14T08:00:27.699Z,97925.75
2023-08-14T08:02:55.749Z,97931.09
2023-08-14T08:05:23.906Z,97943.34
2023-08-14T08:07:52.667Z,97941.47
2023-08-14T08:10:21.242Z,97940.69
2023-08-14T08:12:51.561Z,97940.78
2023-08-14T08:15:21.437Z,97939.47
2023-08-14T08:17:49.476Z,97940.94
2023-08-14T08:20:17.808Z,97941.56
2023-08-14T08:22:45.794Z,97937.56
2023-08-14T08:25:14.265Z,97948.50
2023-08-14T08:27:42.312Z,97948.81
2023-08-14T08:30:11.246Z,97951.81
2023-08-14T08:32:41.426Z,97952.19
2023-08-14T08:35:10.228Z,97964.56
2023-08-14T08:37:38.268Z,97957.97
2023-08-14T08:40:08.108Z,97956.97
2023-08-14T08:42:36.443Z,97951.59
2023-08-14T08:45:07.018Z,97951.13
2023-08-14T08:47:39.972Z,97945.69
2023-08-14T08:50:10.988Z,97950.88
2023-08-14T08:52:41.317Z,97952.19
2023-08-14T08:55:10.683Z,97945.69
2023-08-14T08:57:40.086Z,97939.19
2023-08-14T09:00:09.356Z,97936.13
2023-08-14T09:02:37.624Z,97942.97
2023-08-14T09:05:06.359Z,97941.69
2023-08-14T09:07:36.405Z,97941.94
2023-08-14T09:10:04.727Z,97944.88
2023-08-14T09:12:32.948Z,97941.06
2023-08-14T09:15:06.654Z,97942.84
2023-08-14T09:17:35.599Z,97943.03
2023-08-14T09:20:11.813Z,97943.22
2023-08-14T09:22:45.110Z,97940.94
2023-08-14T09:25:13.974Z,97939.91
2023-08-14T09:27:43.887Z,97935.25
2023-08-14T09:30:14.075Z,97937.38
2023-08-14T09:32:42.080Z,97934.28
2023-08-14T09:35:10.506Z,97926.03
2023-08-14T09:37:38.594Z,97931.28
2023-08-14T09:40:14.354Z,97934.53
2023-08-14T09:42:43.816Z,97929.81
2023-08-14T09:45:13.428Z,97946.19
2023-08-14T09:47:44.732Z,97942.34
2023-08-14T09:50:15.167Z,97943.13
2023-08-14T09:52:45.749Z,97932.88
2023-08-14T09:55:16.691Z,97939.28
2023-08-14T09:57:45.779Z,97939.78
2023-08-14T10:00:14.757Z,97930.34
2023-08-14T10:02:46.439Z,97928.03
2023-08-14T10:05:15.269Z,97920.53
2023-08-14T10:07:44.680Z,97924.16
2023-08-14T10:10:15.001Z,97916.75
2023-08-14T10:12:51.059Z,97906.44
2023-08-14T10:15:23.817Z,97914.06
2023-08-14T10:17:56.385Z,97911.78
2023-08-14T10:20:25.645Z,97916.25
2023-08-14T10:22:54.887Z,97909.91
2023-08-14T10:25:24.482Z,97908.34
2023-08-14T10:27:54.734Z,97909.19
2023-08-14T10:30:25.019Z,97908.47
2023-08-14T10:32:54.030Z,97913.66
2023-08-14T10:35:24.088Z,97899.41
2023-08-14T10:38:04.914Z,97899.88
2023-08-14T10:40:37.256Z,97903.03
2023-08-14T10:43:08.530Z,97906.22
2023-08-14T10:45:36.589Z,97904.63
2023-08-14T10:48:11.068Z,97904.13
2023-08-14T10:50:40.261Z,97900.50
2023-08-14T10:53:08.324Z,97898.91
2023-08-14T10:55:41.708Z,97898.41
2023-08-14T10:58:42.363Z,97895.69
2023-08-14T11:01:11.968Z,97897.28
2023-08-14T11:04:04.646Z,97902.00
2023-08-14T11:07:09.913Z,97895.47
2023-08-14T11:09:39.439Z,97893.56
2023-08-14T11:12:09.444Z,97896.03
2023-08-14T11:14:40.811Z,97888.13
2023-08-14T11:17:10.743Z,97890.59
2023-08-14T11:19:39.786Z,97889.00
2023-08-14T11:22:33.491Z,97890.16
2023-08-14T11:25:02.564Z,97890.47
2023-08-14T11:27:38.057Z,97884.81
2023-08-14T11:30:15.190Z,97889.91
2023-08-14T11:33:51.396Z,97882.63
2023-08-14T11:36:24.994Z,97894.81
2023-08-14T11:38:58.288Z,97878.09
2023-08-14T11:43:59.713Z,97881.06
2023-08-14T11:46:29.614Z,97876.00
2023-08-14T11:48:58.777Z,97876.84
2023-08-14T11:51:27.490Z,97881.72
2023-08-14T11:53:56.439Z,97879.75
2023-08-14T11:56:25.089Z,97871.88
2023-08-14T11:59:03.673Z,97871.47
2023-08-14T12:01:39.531Z,97881.06
2023-08-14T12:04:08.503Z,97867.53
2023-08-14T12:06:37.004Z,97867.53
2023-08-14T12:09:09.282Z,97869.16
2023-08-14T12:11:38.842Z,97854.84
2023-08-14T12:14:07.594Z,97871.53
2023-08-14T12:16:41.921Z,97877.50
2023-08-14T12:19:15.190Z,97871.94
2023-08-14T12:21:43.409Z,97885.50
2023-08-14T12:24:13.208Z,97883.50
2023-08-14T12:26:44.854Z,97898.63
2023-08-14T12:29:15.789Z,97913.72
2023-08-14T12:31:45.797Z,97918.06
2023-08-14T12:34:14.804Z,97899.31
2023-08-14T12:36:43.099Z,97904.03
2023-08-14T12:39:14.496Z,97899.63
2023-08-14T12:41:42.906Z,97887.63
2023-08-14T12:44:11.036Z,97905.09
2023-08-14T12:46:39.377Z,97918.56
2023-08-14T12:49:09.048Z,97914.06
2023-08-14T12:51:37.219Z,97919.50
2023-08-14T12:54:05.904Z,97920.16
2023-08-14T12:56:34.405Z,97927.66
2023-08-14T12:59:02.619Z,97927.88
2023-08-14T13:01:30.864Z,97936.13
2023-08-14T13:04:00.254Z,97949.41
2023-08-14T13:06:30.791Z,97958.91
2023-08-14T13:08:59.104Z,97965.34
2023-08-14T13:11:27.619Z,97956.41
2023-08-14T13:14:48.141Z,97972.03
2023-08-14T13:17:16.310Z,97945.88
2023-08-14T13:19:45.639Z,97935.47
2023-08-14T13:22:17.302Z,97925.34
2023-08-14T13:24:46.598Z,97920.16
2023-08-14T13:27:14.932Z,97912.69
2023-08-14T13:29:43.172Z,97885.38
2023-08-14T13:32:11.533Z,97904.69
2023-08-14T13:34:40.074Z,97910.00
2023-08-14T13:37:08.405Z,97931.66
2023-08-14T13:39:40.399Z,97918.13
2023-08-14T13:42:10.531Z,97921.56
2023-08-14T13:44:38.625Z,97909.78
2023-08-14T13:47:07.468Z,97896.41
2023-08-14T13:49:36.615Z,97884.59
2023-08-14T13:52:05.032Z,97889.81
2023-08-14T13:54:35.967Z,97872.69
2023-08-14T13:57:05.667Z,97874.16
2023-08-14T13:59:35.130Z,97867.28
2023-08-14T14:02:04.112Z,97866.66
2023-08-14T14:04:32.507Z,97873.03
2023-08-14T14:07:00.730Z,97867.50
2023-08-14T14:09:29.015Z,97870.56
2023-08-14T14:11:57.458Z,97864.94
2023-08-14T14:14:27.280Z,97851.31
2023-08-14T14:16:59.098Z,97855.78
2023-08-14T14:19:27.715Z,97844.97
2023-08-14T14:21:58.127Z,97855.22
2023-08-14T14:24:26.876Z,97850.50
2023-08-14T14:26:54.863Z,97851.72
2023-08-14T14:29:22.883Z,97855.97
2023-08-14T14:31:52.475Z,97854.00
2023-08-14T14:34:20.850Z,97858.81
2023-08-14T14:36:49.034Z,97864.50
2023-08-14T14:39:17.235Z,97861.13
2023-08-14T14:41:45.509Z,97877.56
2023-08-14T14:44:13.650Z,97888.53
2023-08-14T14:46:43.866Z,97893.03
2023-08-14T14:49:13.370Z,97891.72
2023-08-14T14:51:41.389Z,97887.31
2023-08-14T14:54:09.846Z,97880.41
2023-08-14T14:56:37.835Z,97874.78
2023-08-14T14:59:06.024Z,97862.22
2023-08-14T15:01:34.329Z,97848.59
2023-08-14T15:04:02.494Z,97844.16
2023-08-14T15:06:32.100Z,97824.13
2023-08-14T15:09:00.318Z,97824.84
2023-08-14T15:11:28.410Z,97826.41
2023-08-14T15:13:56.544Z,97833.13
2023-08-14T15:16:25.092Z,97837.22
2023-08-14T15:18:53.206Z,97823.34
2023-08-14T15:21:21.302Z,97817.09
2023-08-14T15:23:50.845Z,97819.09
2023-08-14T15:26:18.922Z,97812.16
2023-08-14T15:28:47.355Z,97810.59
2023-08-14T15:31:15.441Z,97792.00
2023-08-14T15:33:43.541Z,97794.53
2023-08-14T15:36:11.561Z,97793.00
2023-08-14T15:38:39.724Z,97800.19
2023-08-14T15:41:11.376Z,97799.47
2023-08-14T15:43:39.672Z,97795.50
2023-08-14T15:46:08.633Z,97799.16
2023-08-14T15:48:36.829Z,97785.25
2023-08-14T15:51:05.188Z,97787.28
2023-08-14T15:53:33.319Z,97783.78
2023-08-14T15:56:01.459Z,97777.41
2023-08-14T15:58:30.835Z,97780.72
2023-08-14T16:00:59.777Z,97793.06
2023-08-14T16:03:27.918Z,97784.31
2023-08-14T16:05:58.743Z,97786.75
2023-08-14T16:08:26.870Z,97786.34
2023-08-14T16:10:54.954Z,97785.53
2023-08-14T16:13:23.100Z,97783.16
2023-08-14T16:15:52.599Z,97792.69
2023-08-14T16:18:20.748Z,97781.13
2023-08-14T16:20:48.907Z,97790.25
2023-08-14T16:23:17.069Z,97789.03
2023-08-14T16:25:45.093Z,97786.97
2023-08-14T16:28:13.487Z,97794.06
2023-08-14T16:30:42.340Z,97787.34
2023-08-14T16:33:11.911Z,97794.47
2023-08-14T16:35:40.381Z,97790.47
2023-08-14T16:38:08.704Z,97790.88
2023-08-14T16:40:42.648Z,97789.28
2023-08-14T16:43:10.773Z,97789.72
2023-08-14T16:45:39.478Z,97789.28
2023-08-14T16:48:08.062Z,97785.31
2023-08-14T16:50:39.701Z,97781.69
2023-08-14T16:53:07.873Z,97786.88
2023-08-14T16:55:36.251Z,97790.41
2023-08-14T16:58:04.419Z,97790.38
2023-08-14T17:00:32.730Z,97783.59
2023-08-14T17:03:03.669Z,97786.75
2023-08-14T17:05:32.683Z,97802.25
2023-08-14T17:08:02.187Z,97793.91
2023-08-14T17:10:30.303Z,97806.16
2023-08-14T17:12:58.644Z,97798.97
2023-08-14T17:15:26.685Z,97796.16
2023-08-14T17:17:54.869Z,97789.34
2023-08-14T17:20:22.960Z,97799.66
2023-08-14T17:22:51.217Z,97796.38
2023-08-14T17:25:20.941Z,97799.44
2023-08-14T17:27:49.036Z,97804.91
2023-08-14T17:30:17.265Z,97802.84
2023-08-14T17:32:45.456Z,97800.72
2023-08-14T17:35:13.861Z,97805.81
2023-08-14T17:37:42.059Z,97804.50
2023-08-14T17:40:11.490Z,97808.69
2023-08-14T17:42:41.004Z,97803.38
2023-08-14T17:45:09.812Z,97799.28
2023-08-14T17:47:37.870Z,97807.47
2023-08-14T17:50:07.405Z,97807.31
2023-08-14T17:52:35.468Z,97802.47
2023-08-14T17:55:03.605Z,97803.22
2023-08-14T17:57:31.725Z,97804.44
2023-08-14T18:00:01.276Z,97804.06
2023-08-14T18:02:29.679Z,97799.59
2023-08-14T18:04:58.069Z,97802.72
2023-08-14T18:07:26.370Z,97803.00
2023-08-14T18:09:57.051Z,97800.91
2023-08-14T18:12:25.861Z,97802.81
2023-08-14T18:14:54.165Z,97800.00
2023-08-14T18:17:23.869Z,97804.66
2023-08-14T18:19:52.020Z,97803.63
2023-08-14T18:22:20.284Z,97799.19
2023-08-14T18:24:48.446Z,97808.22
2023-08-14T18:27:16.481Z,97804.53
2023-08-14T18:29:44.347Z,97808.69
2023-08-14T18:32:13.551Z,97812.47
2023-08-14T18:34:44.005Z,97807.94
2023-08-14T18:37:12.020Z,97807.38
2023-08-14T18:39:40.041Z,97820.19
2023-08-14T18:42:07.983Z,97821.56
2023-08-14T18:44:35.982Z,97822.56
2023-08-14T18:47:03.957Z,97824.00
2023-08-14T18:49:33.107Z,97822.25
2023-08-14T18:52:02.489Z,97822.44
2023-08-14T18:54:30.838Z,97819.69
2023-08-14T18:56:58.779Z,97823.13
2023-08-14T18:59:27.042Z,97825.38
2023-08-14T19:01:55.160Z,97821.38
2023-08-14T19:04:40.931Z,97822.44
2023-08-14T19:07:11.560Z,97832.59
2023-08-14T19:09:39.745Z,97838.84
2023-08-14T19:12:09.121Z,97826.13
2023-08-14T19:14:37.446Z,97834.75
2023-08-14T19:17:05.615Z,97839.03
2023-08-14T19:19:33.901Z,97842.88
2023-08-14T19:22:01.917Z,97849.19
2023-08-14T19:24:31.528Z,97841.88
2023-08-14T19:26:59.578Z,97846.78
2023-08-14T19:29:27.686Z,97849.44
2023-08-14T19:31:55.674Z,97845.44
2023-08-14T19:34:23.854Z,97846.97
2023-08-14T19:36:51.776Z,97859.06
2023-08-14T19:39:19.932Z,97851.75
2023-08-14T19:41:50.409Z,97849.28
2023-08-14T19:44:18.928Z,97854.00
2023-08-14T19:46:47.037Z,97861.03
2023-08-14T19:49:15.547Z,97855.53
2023-08-14T19:51:43.864Z,97859.69
2023-08-14T19:54:11.815Z,97862.81
2023-08-14T19:56:39.759Z,97870.09
2023-08-14T19:59:09.522Z,97860.13
2023-08-14T20:01:37.712Z,97856.91
2023-08-14T20:04:09.428Z,97859.00
2023-08-14T20:06:37.551Z,97858.00
2023-08-14T20:09:06.429Z,97851.59
2023-08-14T20:11:34.409Z,97849.53
2023-08-14T20:14:02.412Z,97855.84
2023-08-14T20:16:31.970Z,97854.94
2023-08-14T20:19:00.234Z,97857.59
2023-08-14T20:21:28.358Z,97838.66
2023-08-14T20:23:56.333Z,97859.13
2023-08-14T20:26:24.607Z,97848.44
2023-08-14T20:28:54.772Z,97854.66
2023-08-14T20:31:23.688Z,97851.63
2023-08-14T20:33:53.681Z,97854.63
2023-08-14T20:36:22.394Z,97854.88
2023-08-14T20:38:50.709Z,97855.91
2023-08-14T20:41:19.866Z,97855.81
2023-08-14T20:43:47.972Z,97859.63
2023-08-14T20:46:16.148Z,97857.88
2023-08-14T20:48:44.278Z,97861.78
2023-08-14T20:51:13.964Z,97856.97
2023-08-14T20:53:41.976Z,97863.50
2023-08-14T20:56:10.086Z,97868.34
2023-08-14T20:58:38.187Z,97871.44
2023-08-14T21:01:06.134Z,97873.03
2023-08-14T21:03:34.215Z,97870.97
2023-08-14T21:06:02.319Z,97869.72
2023-08-14T21:08:31.936Z,97876.47
2023-08-14T21:11:02.418Z,97879.47
2023-08-14T21:13:30.764Z,97878.22
2023-08-14T21:15:59.298Z,97874.56
2023-08-14T21:18:27.720Z,97885.00
2023-08-14T21:20:55.679Z,97874.34
2023-08-14T21:23:23.615Z,97877.88
2023-08-14T21:25:53.005Z,97872.28
2023-08-14T21:28:21.175Z,97863.56
2023-08-14T21:30:49.274Z,97865.50
2023-08-14T21:33:17.269Z,97867.81
2023-08-14T21:35:48.101Z,97868.84
2023-08-14T21:38:16.101Z,97868.28
2023-08-14T21:40:43.982Z,97873.22
2023-08-14T21:43:13.726Z,97875.19
2023-08-14T21:45:42.162Z,97882.16
2023-08-14T21:48:10.201Z,97875.28
2023-08-14T21:50:38.384Z,97873.09
2023-08-14T21:53:06.445Z,97866.19
2023-08-14T21:55:34.793Z,97866.41
2023-08-14T21:58:02.725Z,97862.06
2023-08-14T22:00:32.426Z,97856.56
2023-08-14T22:03:00.360Z,97871.91
2023-08-14T22:05:28.341Z,97866.75
2023-08-14T22:07:56.319Z,97870.78
2023-08-14T22:10:24.337Z,97873.31
2023-08-14T22:12:52.269Z,97863.66
2023-08-14T22:15:22.509Z,97875.69
2023-08-14T22:17:54.203Z,97874.09
2023-08-14T22:20:22.545Z,97877.31
2023-08-14T22:22:50.521Z,97878.00
2023-08-14T22:25:18.595Z,97867.66
2023-08-14T22:27:46.674Z,97864.81
2023-08-14T22:30:15.780Z,97864.22
2023-08-14T22:32:43.728Z,97874.63
2023-08-14T22:35:13.381Z,97871.53
2023-08-14T22:37:41.749Z,97873.16
2023-08-14T22:40:11.019Z,97872.00
2023-08-14T22:42:39.057Z,97868.13
2023-08-14T22:45:09.058Z,97877.16
2023-08-14T22:47:37.161Z,97869.72
2023-08-14T22:50:05.899Z,97874.53
2023-08-14T22:52:35.182Z,97875.94
2023-08-14T22:55:03.168Z,97877.31
2023-08-14T22:57:31.141Z,97881.66
2023-08-14T22:59:59.107Z,97883.63
2023-08-14T23:02:27.094Z,97886.03
2023-08-14T23:04:54.999Z,97885.22
2023-08-14T23:07:23.251Z,97873.28
2023-08-14T23:09:52.826Z,97885.91
2023-08-14T23:12:20.878Z,97883.50
2023-08-14T23:14:48.812Z,97886.25
2023-08-14T23:17:16.836Z,97880.28
2023-08-14T23:19:45.598Z,97881.44
2023-08-14T23:22:13.630Z,97886.13
2023-08-14T23:24:42.522Z,97887.25
2023-08-14T23:27:11.964Z,97888.63
2023-08-14T23:29:39.913Z,97888.16
2023-08-14T23:32:08.172Z,97898.03
2023-08-14T23:34:36.173Z,97898.25
2023-08-14T23:37:04.184Z,97898.59
2023-08-14T23:39:32.215Z,97897.53
2023-08-14T23:42:00.223Z,97893.38
2023-08-14T23:44:30.189Z,97888.34
2023-08-14T23:46:58.526Z,97883.53
2023-08-14T23:49:26.590Z,97881.22
2023-08-14T23:51:54.519Z,97874.28
2023-08-14T23:54:22.793Z,97875.22
2023-08-14T23:56:50.804Z,97878.91
2023-08-14T23:59:18.850Z,97884.75
